Time;durP1;ratioP1;P1;durP2;ratioP2;P2;SDS_P1;SDS_P2;PMS_P1;PMS_P2;Temp;Humidity;BMP_temperature;BMP_pressure;BME280_temperature;BME280_humidity;BME280_pressure;Samples;Min_cycle;Max_cycle;Signal;HPM_P1;HPM_P2
2023/04/04 00:00:38;;;;;;;5.33;1.80;;;;;;;1.26;73.76;102783.31;4996006;28;20130;-89
2023/04/04 00:03:04;;;;;;;5.47;1.80;;;;;;;1.20;74.16;102780.09;5013733;28;20113;-89
2023/04/04 00:05:32;;;;;;;5.78;2.20;;;;;;;1.17;73.78;102784.81;5014045;28;20119;-89
2023/04/04 00:08:05;;;;;;;4.90;1.50;;;;;;;1.19;73.57;102785.56;5013843;28;20034;-89
2023/04/04 00:10:32;;;;;;;4.88;1.80;;;;;;;1.12;74.28;102779.78;5013415;28;20054;-89
2023/04/04 00:12:58;;;;;;;4.40;1.60;;;;;;;1.11;74.37;102782.53;4995825;28;20038;-89
2023/04/04 00:15:26;;;;;;;4.70;1.80;;;;;;;1.11;74.52;102782.53;4996066;28;20034;-89
2023/04/04 00:17:51;;;;;;;6.63;1.67;;;;;;;1.10;74.64;102792.38;4996625;28;20033;-89
2023/04/04 00:20:20;;;;;;;3.70;1.60;;;;;;;1.11;74.57;102798.59;4996042;28;20073;-89
2023/04/04 00:22:56;;;;;;;4.45;1.83;;;;;;;1.04;74.82;102798.16;5013366;28;20042;-89
2023/04/04 00:25:22;;;;;;;6.40;2.00;;;;;;;1.00;75.50;102794.81;4995999;28;20044;-89
2023/04/04 00:27:48;;;;;;;3.85;1.90;;;;;;;0.98;75.06;102798.59;4995983;28;20030;-89
2023/04/04 00:30:14;;;;;;;3.53;1.60;;;;;;;0.98;75.63;102799.44;4995950;28;20030;-89
2023/04/04 00:32:42;;;;;;;6.55;2.42;;;;;;;0.94;75.58;102789.91;4996042;28;20029;-88
2023/04/04 00:35:08;;;;;;;5.13;1.83;;;;;;;0.94;75.94;102794.41;4996194;28;20050;-89
2023/04/04 00:37:38;;;;;;;4.35;1.95;;;;;;;0.92;76.23;102789.16;4995856;28;20403;-89
2023/04/04 00:40:04;;;;;;;6.50;1.98;;;;;;;0.90;75.23;102796.44;4996468;28;20029;-89
2023/04/04 00:42:29;;;;;;;7.95;2.20;;;;;;;0.87;75.70;102792.16;4995531;28;20063;-89
2023/04/04 00:44:55;;;;;;;5.00;1.90;;;;;;;0.85;76.37;102795.88;4995061;28;20030;-89
2023/04/04 00:47:26;;;;;;;9.10;1.80;;;;;;;0.83;76.46;102800.50;4995853;28;20442;-88
2023/04/04 00:49:52;;;;;;;5.18;2.17;;;;;;;0.83;76.79;102805.84;4979441;28;20061;-88
2023/04/04 00:52:18;;;;;;;3.50;1.60;;;;;;;0.78;77.03;102798.09;4995893;28;20469;-89
2023/04/04 00:54:43;;;;;;;5.38;1.70;;;;;;;0.77;76.60;102798.19;4995794;28;20492;-89
2023/04/04 00:57:10;;;;;;;4.17;1.67;;;;;;;0.77;76.71;102800.88;4996466;28;20409;-89
2023/04/04 00:59:38;;;;;;;5.75;1.90;;;;;;;0.77;76.51;102799.06;4979677;28;20045;-90
2023/04/04 01:02:04;;;;;;;4.75;1.80;;;;;;;0.74;76.64;102798.41;5016469;28;20049;-89
2023/04/04 01:04:30;;;;;;;5.47;1.90;;;;;;;0.78;77.86;102810.63;4998918;28;20037;-88
2023/04/04 01:06:56;;;;;;;7.33;1.90;;;;;;;0.81;78.38;102803.25;5016837;28;20042;-89
2023/04/04 01:09:22;;;;;;;6.30;1.70;;;;;;;0.81;77.87;102797.91;4998653;28;20474;-89
2023/04/04 01:11:53;;;;;;;5.20;1.67;;;;;;;0.82;78.84;102798.75;4999149;28;20022;-89
2023/04/04 01:14:19;;;;;;;3.23;1.77;;;;;;;0.83;77.76;102806.69;4983579;28;20026;-88
2023/04/04 01:16:52;;;;;;;4.65;1.70;;;;;;;0.76;77.49;102788.50;4982936;28;20741;-91
2023/04/04 01:19:35;;;;;;;4.10;1.70;;;;;;;0.75;78.08;102792.13;4984820;28;20370;-90
2023/04/04 01:22:07;;;;;;;7.10;1.88;;;;;;;0.73;78.63;102778.84;5016823;28;20029;-91
2023/04/04 02:06:06;;;;;;;7.75;2.08;;;;;;;0.17;78.25;102773.66;4936651;29;20416;-90
2023/04/04 02:08:37;;;;;;;3.70;1.95;;;;;;;0.04;78.48;102764.72;4938668;28;20050;-90
2023/04/04 02:11:02;;;;;;;3.38;1.70;;;;;;;-0.01;79.99;102757.00;4996123;28;20043;-91
2023/04/04 02:20:58;;;;;;;4.00;1.90;;;;;;;-0.04;78.90;102784.75;4988706;28;20234;-90
2023/04/04 02:26:51;;;;;;;5.78;1.70;;;;;;;-0.21;79.71;102766.28;4995958;28;20083;-90
2023/04/04 02:32:44;;;;;;;7.82;1.90;;;;;;;-0.16;81.22;102784.66;4995730;28;20061;-90
2023/04/04 02:39:01;;;;;;;;;;;;;;;;;;;;;
2023/04/04 02:41:29;;;;;;;5.60;2.00;;;;;;;-0.28;81.39;102781.84;4996466;28;20312;-91
2023/04/04 02:44:07;;;;;;;5.25;1.77;;;;;;;-0.30;82.27;102782.88;4963101;28;20034;-90
2023/04/04 02:57:03;;;;;;;;;;;;;;;;;;;;;
2023/04/04 02:59:29;;;;;;;4.85;2.00;;;;;;;-0.48;82.67;102760.91;4959529;28;20049;-90
2023/04/04 03:01:54;;;;;;;6.17;1.77;;;;;;;-0.46;83.82;102766.97;4977312;28;20126;-90
2023/04/04 03:08:34;;;;;;;5.13;2.10;;;;;;;-0.42;83.07;102774.69;5014782;28;20041;-90
2023/04/04 03:18:16;;;;;;;6.65;2.28;;;;;;;-0.43;84.04;102783.66;5015317;28;20569;-91
2023/04/04 03:24:04;;;;;;;5.00;2.20;;;;;;;-0.56;84.91;102772.00;5014750;28;20176;-90
2023/04/04 03:26:34;;;;;;;7.35;2.25;;;;;;;-0.54;84.25;102778.97;4997919;28;20033;-90
2023/04/04 03:29:05;;;;;;;5.47;2.28;;;;;;;-0.63;83.93;102773.38;4998494;28;20034;-90
2023/04/04 03:31:35;;;;;;;5.03;1.60;;;;;;;-0.61;84.04;102780.31;4997209;28;20169;-90
2023/04/04 03:34:06;;;;;;;4.68;2.33;;;;;;;-0.69;85.34;102777.28;4981279;28;20037;-91
2023/04/04 03:36:31;;;;;;;5.40;2.30;;;;;;;-0.74;85.60;102776.69;4997077;28;20157;-90
2023/04/04 03:39:07;;;;;;;4.85;2.00;;;;;;;-0.73;85.04;102778.41;4996899;28;20106;-90
2023/04/04 03:41:36;;;;;;;4.73;2.07;;;;;;;-0.83;85.58;102764.78;4996931;28;20034;-90
2023/04/04 04:06:50;;;;;;;3.92;2.20;;;;;;;-0.90;85.64;102758.09;5030280;28;20180;-90
2023/04/04 04:17:12;;;;;;;7.30;2.50;;;;;;;-1.03;86.40;102762.44;4994397;28;20053;-90
2023/04/04 04:20:29;;;;;;;6.72;2.35;;;;;;;-1.09;87.11;102764.56;4937552;28;20398;-90
2023/04/04 04:22:57;;;;;;;7.22;2.50;;;;;;;-1.20;87.81;102752.81;4918238;29;20036;-90
2023/04/04 04:25:27;;;;;;;5.65;2.50;;;;;;;-1.17;88.88;102758.81;4959778;28;20053;-90
2023/04/04 04:27:56;;;;;;;5.03;2.30;;;;;;;-1.24;88.19;102746.81;4977086;28;20398;-89
2023/04/04 04:30:37;;;;;;;4.37;2.53;;;;;;;-1.24;88.96;102742.34;4976780;28;20054;-90
2023/04/04 04:33:13;;;;;;;7.25;2.53;;;;;;;-1.20;89.32;102744.81;4994809;28;20269;-90
2023/04/04 04:35:51;;;;;;;;;;;;;;;;;;;;;
2023/04/04 04:38:22;;;;;;;6.45;2.80;;;;;;;-1.16;90.38;102738.38;4998249;28;20042;-89
2023/04/04 04:40:55;;;;;;;7.30;2.70;;;;;;;-1.08;90.17;102754.75;4964125;28;20026;-90
2023/04/04 04:43:36;;;;;;;7.60;2.70;;;;;;;-1.09;90.57;102753.03;4964399;28;20494;-90
2023/04/04 04:46:07;;;;;;;6.45;2.60;;;;;;;-1.18;89.71;102745.59;4981491;28;20269;-90
2023/04/04 04:48:42;;;;;;;6.45;2.40;;;;;;;-1.18;89.40;102745.59;4998371;28;20030;-90
2023/04/04 04:51:41;;;;;;;7.05;2.75;;;;;;;-1.10;89.62;102756.66;4996608;28;20553;-90
2023/04/04 04:54:09;;;;;;;5.32;2.40;;;;;;;-1.19;90.29;102746.56;4980817;28;20034;-90
2023/04/04 04:56:47;;;;;;;;;;;;;;;;;;;;;
2023/04/04 04:59:26;;;;;;;6.35;2.55;;;;;;;-1.21;90.16;102769.75;4982099;28;20284;-90
2023/04/04 05:02:14;;;;;;;10.70;2.88;;;;;;;-1.18;89.81;102778.44;4980201;28;20473;-89
2023/04/04 05:05:05;;;;;;;6.18;2.70;;;;;;;-1.27;89.36;102776.28;4967277;28;20076;-90
2023/04/04 05:07:32;;;;;;;9.25;2.58;;;;;;;-1.28;89.49;102785.25;4980084;28;20030;-89
2023/04/04 05:10:08;;;;;;;9.20;3.17;;;;;;;-1.30;90.21;102782.66;4963322;28;20062;-90
2023/04/04 05:12:40;;;;;;;4.68;2.70;;;;;;;-1.24;90.67;102803.63;4981182;28;20356;-90
2023/04/04 05:15:29;;;;;;;9.18;3.35;;;;;;;-1.21;90.33;102797.25;5016301;28;20037;-90
2023/04/04 05:18:02;;;;;;;6.07;3.10;;;;;;;-1.31;91.25;102777.44;4982690;28;20045;-90
2023/04/04 05:20:36;;;;;;;8.65;3.20;;;;;;;-1.34;90.65;102780.28;4999658;28;20042;-90
2023/04/04 05:23:01;;;;;;;6.67;3.17;;;;;;;-1.34;90.89;102778.47;5016685;28;20041;-90
2023/04/04 05:25:32;;;;;;;11.25;3.30;;;;;;;-1.33;90.18;102779.31;4998984;28;20827;-90
2023/04/04 05:27:58;;;;;;;12.05;3.35;;;;;;;-1.30;90.06;102787.13;4998867;28;20042;-90
2023/04/04 05:30:26;;;;;;;8.13;3.30;;;;;;;-1.33;90.62;102774.88;4999457;28;20398;-89
2023/04/04 05:32:54;;;;;;;11.93;4.18;;;;;;;-1.30;90.48;102776.47;4998371;28;20021;-90
2023/04/04 05:35:33;;;;;;;8.17;3.67;;;;;;;-1.21;90.87;102791.94;5016618;28;20060;-90
2023/04/04 05:38:00;;;;;;;6.68;3.40;;;;;;;-1.17;90.62;102788.09;4984239;28;20036;-90
2023/04/04 05:40:35;;;;;;;10.45;3.72;;;;;;;-1.16;90.87;102781.84;4998753;28;20116;-90
2023/04/04 05:43:13;;;;;;;;;;;;;;;;;;;;;
2023/04/04 05:45:41;;;;;;;7.15;3.92;;;;;;;-1.01;91.52;102796.06;5016223;28;20038;-89
2023/04/04 05:48:07;;;;;;;7.57;3.20;;;;;;;-1.03;91.63;102789.97;4998395;28;20038;-90
2023/04/04 05:50:47;;;;;;;7.25;3.50;;;;;;;-0.93;91.30;102800.91;4998196;28;20029;-90
2023/04/04 05:53:15;;;;;;;7.30;3.37;;;;;;;-0.84;90.52;102807.50;4999155;28;20026;-90
2023/04/04 05:55:43;;;;;;;5.47;3.75;;;;;;;-0.77;90.38;102803.53;4998959;28;20277;-90
2023/04/04 05:58:11;;;;;;;10.20;5.13;;;;;;;-0.77;89.65;102793.75;4998021;28;20034;-89
2023/04/04 06:00:51;;;;;;;5.63;3.47;;;;;;;-0.72;89.36;102796.13;5014090;28;20030;-88
2023/04/04 06:03:17;;;;;;;9.43;3.80;;;;;;;-0.60;88.74;102798.03;4997932;28;20032;-87
2023/04/04 06:05:58;;;;;;;6.77;3.53;;;;;;;-0.59;88.69;102793.53;4997837;28;20030;-89
2023/04/04 06:08:29;;;;;;;6.95;3.72;;;;;;;-0.52;88.01;102788.69;4998007;28;20022;-90
2023/04/04 06:10:54;;;;;;;8.75;3.38;;;;;;;-0.48;88.35;102787.56;4998543;28;20018;-90
2023/04/04 06:13:30;;;;;;;7.37;3.33;;;;;;;-0.41;87.27;102780.91;4997525;28;20053;-90
2023/04/04 06:15:55;;;;;;;7.15;3.63;;;;;;;-0.33;88.22;102783.06;4999121;28;20046;-89
2023/04/04 06:18:26;;;;;;;7.90;3.60;;;;;;;-0.26;87.77;102795.09;4997801;28;20040;-89
2023/04/04 06:21:01;;;;;;;8.38;3.80;;;;;;;-0.22;87.91;102791.28;4998178;28;20034;-90
2023/04/04 06:23:48;;;;;;;6.72;3.78;;;;;;;-0.11;86.98;102799.44;5013635;28;20041;-90
2023/04/04 06:26:16;;;;;;;10.10;3.70;;;;;;;0.07;87.66;102815.22;4982489;28;20045;-91
2023/04/04 06:28:54;;;;;;;9.50;3.77;;;;;;;0.06;86.60;102806.38;4997251;28;20042;-90
2023/04/04 06:31:22;;;;;;;8.30;3.55;;;;;;;0.11;86.53;102804.25;4981975;28;20124;-90
2023/04/04 06:33:52;;;;;;;8.25;4.00;;;;;;;0.19;86.61;102806.44;4998124;28;20041;-90
2023/04/04 06:36:23;;;;;;;12.95;4.18;;;;;;;0.30;85.61;102817.28;4997025;28;20033;-90
2023/04/04 06:39:11;;;;;;;7.18;3.90;;;;;;;0.31;85.58;102811.00;4982056;28;20026;-90
2023/04/04 06:41:46;;;;;;;9.57;4.00;;;;;;;0.41;84.49;102815.72;4997149;28;20045;-90
2023/04/04 06:44:38;;;;;;;8.27;3.90;;;;;;;0.43;85.03;102806.66;4998302;28;20029;-91
2023/04/04 06:47:10;;;;;;;8.93;3.80;;;;;;;0.51;83.88;102807.00;4987139;28;20038;-90
2023/04/04 06:49:36;;;;;;;7.32;3.90;;;;;;;0.67;83.64;102827.38;4997382;28;20614;-90
2023/04/04 06:52:13;;;;;;;9.02;4.13;;;;;;;0.61;83.09;102806.41;4997438;28;20033;-90
2023/04/04 06:54:42;;;;;;;12.27;4.17;;;;;;;0.72;82.75;102821.72;4998323;28;20092;-89
2023/04/04 06:57:17;;;;;;;8.88;4.18;;;;;;;0.73;82.48;102818.09;4980104;28;20053;-90
2023/04/04 06:59:45;;;;;;;8.63;3.83;;;;;;;0.78;82.65;102821.31;4997359;28;20029;-90
2023/04/04 07:02:10;;;;;;;7.88;3.90;;;;;;;0.86;81.75;102813.63;4996756;28;20493;-90
2023/04/04 07:04:46;;;;;;;;;;;;;;;;;;;;;
2023/04/04 07:10:32;;;;;;;7.38;3.90;;;;;;;1.09;81.98;102822.75;4916376;29;20109;-90
2023/04/04 07:13:20;;;;;;;12.10;4.13;;;;;;;1.20;81.25;102828.22;4997246;28;20406;-90
2023/04/04 07:16:17;;;;;;;9.77;3.97;;;;;;;1.21;81.07;102811.22;4996816;28;20376;-90
2023/04/04 07:18:57;;;;;;;13.43;4.05;;;;;;;1.31;79.86;102821.28;4999131;28;20041;-90
2023/04/04 07:24:47;;;;;;;7.13;3.67;;;;;;;1.48;78.55;102826.31;4964572;28;20177;-91
2023/04/04 07:27:22;;;;;;;9.63;4.10;;;;;;;1.55;78.73;102808.00;4968213;28;20523;-90
2023/04/04 07:29:57;;;;;;;9.43;3.65;;;;;;;1.67;78.09;102801.81;4980797;28;20291;-90
2023/04/04 07:32:32;;;;;;;7.70;3.75;;;;;;;1.76;77.07;102808.34;4996989;28;20076;-91
2023/04/04 07:35:04;;;;;;;8.43;3.88;;;;;;;1.91;76.60;102809.91;4981296;28;20057;-91
2023/04/04 07:37:34;;;;;;;6.85;3.05;;;;;;;1.98;75.41;102794.25;4996539;28;20120;-91
2023/04/04 07:40:06;;;;;;;10.35;4.03;;;;;;;2.08;75.08;102792.63;4996843;28;20034;-90
2023/04/04 07:42:42;;;;;;;5.20;3.20;;;;;;;2.20;73.82;102793.56;4996431;28;20106;-90
2023/04/04 07:45:21;;;;;;;7.28;3.30;;;;;;;2.31;72.52;102798.13;4965077;28;20056;-91
2023/04/04 07:47:49;;;;;;;10.00;3.03;;;;;;;2.51;71.44;102811.84;4996596;28;20045;-90
2023/04/04 07:50:18;;;;;;;6.78;2.80;;;;;;;2.57;70.33;102806.03;4996367;28;20083;-90
2023/04/04 07:53:00;;;;;;;;;;;;;;;;;;;;;
2023/04/04 07:55:43;;;;;;;;;;;;;;;;;;;;;
2023/04/04 07:58:16;;;;;;;5.68;2.63;;;;;;;2.91;70.07;102795.44;4997666;28;20044;-90
2023/04/04 08:00:46;;;;;;;5.10;2.20;;;;;;;3.06;66.79;102802.31;4996815;28;20069;-91
2023/04/04 08:03:16;;;;;;;5.93;2.20;;;;;;;3.13;65.11;102802.69;4996635;28;20076;-90
2023/04/04 08:05:49;;;;;;;5.33;1.83;;;;;;;3.28;64.49;102811.41;4996355;28;20393;-90
2023/04/04 08:08:24;;;;;;;8.50;2.60;;;;;;;3.36;64.53;102810.81;4979990;28;20281;-91
2023/04/04 08:10:53;;;;;;;6.22;2.28;;;;;;;3.34;63.43;102794.81;5000038;28;20038;-91
2023/04/04 08:13:28;;;;;;;;;;;;;;;;;;;;;
2023/04/04 08:15:56;;;;;;;7.80;2.15;;;;;;;3.54;60.95;102806.66;5018850;28;20040;-90
2023/04/04 08:21:44;;;;;;;7.28;2.08;;;;;;;3.76;63.39;102821.91;5017580;28;20264;-90
2023/04/04 08:24:11;;;;;;;4.75;2.10;;;;;;;3.78;61.38;102820.00;4984656;28;20034;-90
2023/04/04 08:26:42;;;;;;;7.55;2.20;;;;;;;3.78;61.44;102803.88;4999882;28;20033;-90
2023/04/04 08:29:08;;;;;;;5.35;2.10;;;;;;;3.82;62.02;102799.97;5001350;28;20030;-90
2023/04/04 08:31:36;;;;;;;3.50;1.70;;;;;;;3.93;60.69;102807.16;4999466;28;20121;-90
2023/04/04 08:34:01;;;;;;;4.43;1.88;;;;;;;3.94;61.03;102808.88;4983676;28;20048;-90
2023/04/04 08:36:32;;;;;;;5.70;1.60;;;;;;;4.03;59.38;102805.44;5016314;28;20046;-90
2023/04/04 08:39:23;;;;;;;4.78;1.73;;;;;;;4.06;57.62;102800.78;4984297;28;20385;-90
2023/04/04 08:42:15;;;;;;;;;;;;;;;;;;;;;
2023/04/04 08:44:53;;;;;;;5.78;1.50;;;;;;;4.18;57.96;102789.06;5018257;28;20026;-91
2023/04/04 08:47:30;;;;;;;5.63;1.63;;;;;;;4.19;56.00;102777.31;5001499;28;20033;-91
2023/04/04 08:49:58;;;;;;;3.47;1.77;;;;;;;4.25;56.66;102782.16;4999387;28;20080;-90
2023/04/04 08:52:27;;;;;;;4.07;1.70;;;;;;;4.31;57.58;102772.75;4999170;28;20393;-90
2023/04/04 08:55:01;;;;;;;4.57;1.85;;;;;;;4.43;54.76;102787.00;5017311;28;20056;-91
2023/04/04 08:57:36;;;;;;;4.82;1.00;;;;;;;4.49;53.58;102782.00;5001009;28;20053;-91
2023/04/04 09:00:46;;;;;;;3.67;1.47;;;;;;;4.56;55.44;102780.50;5000244;28;20026;-90
2023/04/04 09:03:33;;;;;;;3.03;1.10;;;;;;;4.71;53.87;102789.13;4999258;28;20025;-90
2023/04/04 09:09:16;;;;;;;8.35;1.55;;;;;;;4.80;52.99;102790.19;5016820;28;20100;-90
2023/04/04 09:12:23;;;;;;;;;;;;;;;;;;;;;
2023/04/04 09:15:02;;;;;;;3.97;1.30;;;;;;;4.89;53.03;102770.56;5009140;28;20488;-90
2023/04/04 09:17:45;;;;;;;4.72;1.30;;;;;;;4.95;52.48;102771.88;4998755;28;20053;-90
2023/04/04 09:20:46;;;;;;;11.65;2.38;;;;;;;5.12;52.15;102785.72;4998860;28;20033;-90
2023/04/04 09:23:36;;;;;;;4.03;1.25;;;;;;;5.16;51.73;102785.31;4984048;28;20467;-91
2023/04/04 09:26:05;;;;;;;4.90;1.20;;;;;;;5.18;51.42;102769.91;4998584;28;20034;-91
2023/04/04 09:28:34;;;;;;;4.37;1.10;;;;;;;5.24;49.74;102768.50;4998733;28;20044;-90
2023/04/04 09:31:20;;;;;;;4.05;1.48;;;;;;;5.35;50.99;102773.81;4998629;28;20041;-91
2023/04/04 09:33:50;;;;;;;4.18;1.10;;;;;;;5.45;50.16;102773.88;4999849;28;20033;-90
2023/04/04 09:36:26;;;;;;;;;;;;;;;;;;;;;
2023/04/04 09:39:15;;;;;;;;;;;;;;;;;;;;;
2023/04/04 09:42:02;;;;;;;3.90;1.27;;;;;;;5.59;48.19;102773.50;4987325;28;20042;-91
2023/04/04 09:44:57;;;;;;;;;;;;;;;;;;;;;
2023/04/04 09:47:31;;;;;;;3.83;1.00;;;;;;;5.73;47.14;102761.53;5000811;28;20510;-90
2023/04/04 09:50:32;;;;;;;4.18;1.00;;;;;;;5.79;48.26;102776.28;4982792;28;20124;-91
2023/04/04 09:53:12;;;;;;;4.05;1.30;;;;;;;5.80;47.86;102770.75;4998470;28;20079;-91
2023/04/04 09:55:56;;;;;;;6.00;1.50;;;;;;;5.89;46.74;102762.81;4983385;28;20041;-91
2023/04/04 09:58:39;;;;;;;4.43;1.20;;;;;;;6.06;46.65;102762.19;4999066;28;20052;-90
2023/04/04 10:01:18;;;;;;;2.47;1.20;;;;;;;6.14;45.95;102754.28;4998070;28;20045;-92
2023/04/04 10:03:57;;;;;;;3.80;1.30;;;;;;;6.22;44.76;102758.13;4999000;28;20462;-89
2023/04/04 10:06:25;;;;;;;5.50;1.30;;;;;;;6.27;45.01;102756.69;4982857;28;20088;-89
2023/04/04 10:08:58;;;;;;;4.30;1.27;;;;;;;6.34;44.72;102753.47;4998212;28;20109;-89
2023/04/04 10:11:32;;;;;;;3.85;1.17;;;;;;;6.45;44.89;102754.19;5015640;28;20036;-89
2023/04/04 10:14:03;;;;;;;3.22;1.20;;;;;;;6.60;44.56;102753.72;4997704;28;20482;-89
2023/04/04 10:16:40;;;;;;;3.25;1.40;;;;;;;6.76;44.76;102753.16;4998006;28;20044;-89
2023/04/04 10:19:18;;;;;;;;;;;;;;;;;;;;;
2023/04/04 10:21:45;;;;;;;5.77;1.50;;;;;;;7.17;44.37;102751.09;5015202;28;20040;-89
2023/04/04 10:24:18;;;;;;;4.22;1.30;;;;;;;7.24;43.90;102736.03;4998039;28;20080;-91
2023/04/04 10:27:01;;;;;;;5.35;1.50;;;;;;;7.46;42.43;102750.16;5016299;28;20038;-89
2023/04/04 10:29:34;;;;;;;5.18;1.40;;;;;;;7.56;42.95;102742.88;4997127;28;20120;-89
2023/04/04 10:32:06;;;;;;;5.82;1.30;;;;;;;7.71;42.58;102743.22;5015561;28;20050;-89
2023/04/04 10:34:55;;;;;;;5.17;1.20;;;;;;;7.91;43.15;102738.56;4998112;28;20036;-90
2023/04/04 10:37:51;;;;;;;5.50;1.63;;;;;;;8.19;43.59;102754.75;4997778;28;20080;-89
2023/04/04 10:40:27;;;;;;;3.75;1.48;;;;;;;8.43;42.61;102749.59;4997225;28;20034;-89
2023/04/04 10:43:01;;;;;;;3.53;1.23;;;;;;;8.50;42.60;102733.59;4982578;28;20030;-89
2023/04/04 10:45:30;;;;;;;6.65;1.52;;;;;;;8.61;42.05;102729.81;5013463;28;20034;-89
2023/04/04 10:48:01;;;;;;;6.27;1.40;;;;;;;8.72;41.76;102718.72;4997057;28;20038;-89
2023/04/04 10:50:32;;;;;;;4.65;1.77;;;;;;;8.86;42.45;102716.47;5014463;28;20026;-89
2023/04/04 10:53:09;;;;;;;5.13;1.63;;;;;;;9.06;42.41;102715.25;4997726;28;20049;-89
2023/04/04 10:55:45;;;;;;;7.40;1.40;;;;;;;9.43;41.15;102726.81;4981436;28;20030;-89
2023/04/04 10:58:20;;;;;;;4.57;1.58;;;;;;;9.55;40.20;102711.09;4981826;28;20029;-89
2023/04/04 11:00:56;;;;;;;4.00;1.40;;;;;;;9.77;38.68;102715.09;4997334;28;20330;-89
2023/04/04 11:03:24;;;;;;;2.80;1.10;;;;;;;9.92;38.18;102707.16;5015193;28;20454;-89
2023/04/04 11:06:00;;;;;;;3.95;1.50;;;;;;;10.09;38.98;102713.47;5014247;28;20088;-88
2023/04/04 11:08:41;;;;;;;8.35;1.40;;;;;;;10.33;38.84;102715.38;4997099;28;20026;-88
2023/04/04 11:11:07;;;;;;;7.10;1.40;;;;;;;10.63;38.58;102703.03;4996913;28;20125;-88
2023/04/04 11:13:40;;;;;;;3.73;1.50;;;;;;;10.81;36.75;102708.28;5014258;28;20129;-89
2023/04/04 11:16:18;;;;;;;5.10;1.60;;;;;;;11.40;38.06;102710.69;4996999;28;20022;-89
2023/04/04 11:18:49;;;;;;;5.28;1.60;;;;;;;13.11;34.17;102697.94;4996928;28;20092;-89
2023/04/04 11:21:26;;;;;;;4.45;1.60;;;;;;;16.44;28.65;102684.31;5014189;28;20040;-89
2023/04/04 11:23:59;;;;;;;4.60;1.80;;;;;;;19.19;26.18;102688.47;4981098;28;20034;-88
2023/04/04 11:26:28;;;;;;;4.30;1.77;;;;;;;21.66;23.54;102678.16;4996751;28;20040;-89
2023/04/04 11:29:23;;;;;;;2.90;1.63;;;;;;;24.27;24.21;102665.56;4997283;28;20366;-89
2023/04/04 11:31:50;;;;;;;7.53;1.90;;;;;;;26.09;18.17;102662.31;4996241;28;20133;-89
2023/04/04 11:34:31;;;;;;;5.50;2.13;;;;;;;28.28;20.46;102662.06;4996454;28;20033;-89
2023/04/04 11:37:00;;;;;;;4.95;2.00;;;;;;;30.09;16.03;102658.75;5015003;28;20447;-90
2023/04/04 11:39:56;;;;;;;;;;;;;;;;;;;;;
2023/04/04 11:42:31;;;;;;;3.05;2.00;;;;;;;31.75;13.95;102660.00;5014362;28;20366;-90
2023/04/04 11:45:08;;;;;;;5.13;2.53;;;;;;;32.14;13.29;102664.94;4996063;28;20445;-90
2023/04/04 11:47:41;;;;;;;5.43;2.25;;;;;;;32.69;12.83;102649.72;5014459;28;20096;-89
2023/04/04 11:50:19;;;;;;;;;;;;;;;;;;;;;
2023/04/04 11:52:48;;;;;;;4.13;2.20;;;;;;;34.47;11.02;102639.09;5015138;28;20348;-90
2023/04/04 11:55:25;;;;;;;6.32;2.65;;;;;;;34.49;10.78;102631.97;4980677;28;20061;-89
2023/04/04 11:57:51;;;;;;;3.30;2.38;;;;;;;35.02;10.50;102632.56;4981183;28;20037;-90
2023/04/04 12:00:36;;;;;;;7.28;2.65;;;;;;;35.76;13.16;102624.53;4997236;28;20084;-89
2023/04/04 12:03:09;;;;;;;5.15;2.67;;;;;;;35.97;11.23;102623.72;4996170;28;20125;-90
2023/04/04 12:05:37;;;;;;;4.80;2.93;;;;;;;36.17;10.04;102614.34;4996141;28;20045;-90
2023/04/04 12:08:12;;;;;;;4.18;2.80;;;;;;;37.03;10.40;102615.59;5013715;28;20061;-90
2023/04/04 12:10:47;;;;;;;4.50;2.75;;;;;;;37.87;10.57;102608.38;4995996;28;20030;-90
2023/04/04 12:13:16;;;;;;;5.28;3.58;;;;;;;38.59;8.76;102598.94;4995624;28;20033;-90
2023/04/04 12:15:47;;;;;;;4.32;3.08;;;;;;;38.59;9.81;102604.59;4995651;28;20441;-91
2023/04/04 12:18:26;;;;;;;5.20;3.20;;;;;;;38.12;10.21;102594.06;4996088;28;20036;-93
2023/04/04 12:20:52;;;;;;;3.78;3.00;;;;;;;39.05;8.38;102595.56;4997361;28;20026;-91
2023/04/04 12:23:21;;;;;;;4.90;3.45;;;;;;;39.21;8.25;102575.66;5013895;28;20105;-92
2023/04/04 12:25:55;;;;;;;4.15;3.53;;;;;;;39.30;8.23;102591.28;4995975;28;20033;-93
2023/04/04 12:28:33;;;;;;;4.17;2.93;;;;;;;39.16;8.58;102573.16;4980779;28;20474;-92
2023/04/04 12:31:09;;;;;;;3.47;3.17;;;;;;;38.49;8.38;102577.66;4996737;28;20358;-93
2023/04/04 12:33:50;;;;;;;4.53;3.22;;;;;;;38.79;7.85;102565.81;4979693;28;20052;-92
2023/04/04 12:36:19;;;;;;;5.10;3.33;;;;;;;39.27;7.76;102571.34;4995894;28;20042;-93
2023/04/04 12:39:03;;;;;;;4.07;3.55;;;;;;;41.11;9.17;102583.09;4996139;28;20116;-93
2023/04/04 12:41:29;;;;;;;4.00;3.60;;;;;;;40.79;7.08;102567.16;4995905;28;20041;-93
2023/04/04 12:44:07;;;;;;;4.25;3.85;;;;;;;41.40;7.81;102561.53;4996003;28;20038;-90
2023/04/04 12:47:10;;;;;;;4.90;4.30;;;;;;;42.42;8.27;102567.00;4995684;28;20026;-92
2023/04/04 12:53:19;;;;;;;5.37;4.33;;;;;;;44.36;7.15;102564.00;4934087;29;20147;-93
2023/04/04 12:59:23;;;;;;;5.93;4.72;;;;;;;46.30;6.33;102541.31;4937396;29;20077;-93
2023/04/04 13:13:02;;;;;;;6.03;5.43;;;;;;;47.58;5.69;102499.88;4936613;29;20130;-93
2023/04/04 13:24:36;;;;;;;6.35;5.57;;;;;;;44.34;6.65;102486.38;4938383;28;20134;-92
2023/04/04 13:32:03;;;;;;;6.65;5.30;;;;;;;45.96;6.01;102476.06;5014864;28;20504;-93
2023/04/04 14:37:21;;;;;;;;;;;;;;;;;;;;;
2023/04/04 14:45:12;;;;;;;6.83;5.40;;;;;;;43.27;5.77;102397.34;4974874;28;20062;-93
2023/04/04 14:51:28;;;;;;;5.70;5.10;;;;;;;42.27;6.17;102377.06;4981777;28;20110;-96
2023/04/04 14:53:56;;;;;;;5.35;4.82;;;;;;;42.04;6.25;102380.97;4961851;28;20054;-93
2023/04/04 14:56:27;;;;;;;8.32;4.88;;;;;;;41.58;6.46;102367.19;4944037;28;20126;-94
2023/04/04 14:58:52;;;;;;;5.43;4.70;;;;;;;41.48;6.59;102374.47;4957792;28;20059;-91
2023/04/04 15:01:21;;;;;;;6.90;4.50;;;;;;;41.67;6.07;102362.00;4973305;28;20062;-91
2023/04/04 15:03:52;;;;;;;6.32;4.90;;;;;;;41.51;6.46;102357.38;4937882;29;20106;-91
2023/04/04 15:06:23;;;;;;;5.93;5.33;;;;;;;40.98;6.69;102367.03;4970849;28;20125;-91
2023/04/04 15:09:03;;;;;;;;;;;;;;;;;;;;;
2023/04/04 15:11:34;;;;;;;6.60;5.10;;;;;;;41.41;6.31;102355.25;4990342;28;20046;-91
2023/04/04 15:14:09;;;;;;;6.30;5.20;;;;;;;40.12;6.80;102349.72;4997486;28;20045;-90
2023/04/04 15:16:35;;;;;;;5.22;4.72;;;;;;;39.98;6.77;102336.09;4996547;28;20037;-91
2023/04/04 15:19:24;;;;;;;7.10;4.93;;;;;;;40.03;7.07;102337.81;4995809;28;20044;-90
2023/04/04 15:21:59;;;;;;;5.20;4.70;;;;;;;39.32;6.97;102357.31;4983337;28;20060;-92
2023/04/04 15:24:59;;;;;;;5.57;5.07;;;;;;;39.98;7.40;102353.16;4961003;28;20125;-93
2023/04/04 15:27:27;;;;;;;4.97;4.55;;;;;;;39.59;6.43;102344.03;4972800;28;20051;-92
2023/04/04 15:29:55;;;;;;;5.70;4.70;;;;;;;38.80;7.26;102342.56;4973016;28;20026;-93
2023/04/04 15:32:23;;;;;;;8.73;5.00;;;;;;;38.99;6.99;102336.84;4972643;28;20074;-93
2023/04/04 15:34:51;;;;;;;5.15;4.38;;;;;;;39.28;7.29;102345.91;4972716;28;20475;-93
2023/04/04 15:37:34;;;;;;;7.97;5.13;;;;;;;39.02;7.29;102333.25;4972803;28;20041;-93
2023/04/04 15:40:03;;;;;;;5.30;4.80;;;;;;;37.71;7.83;102330.84;4972456;28;20043;-95
2023/04/04 15:46:54;;;;;;;6.75;4.82;;;;;;;38.14;7.94;102333.88;4971227;28;20082;-93
2023/04/04 15:53:35;;;;;;;;;;;;;;;;;;;;;
2023/04/04 15:56:09;;;;;;;6.68;4.30;;;;;;;35.41;9.15;102317.28;4961446;28;20054;-92
2023/04/04 15:58:55;;;;;;;6.03;5.10;;;;;;;34.50;9.31;102326.50;4927021;29;20044;-92
2023/04/04 16:01:39;;;;;;;5.80;4.82;;;;;;;33.08;10.47;102317.47;4934785;28;20111;-93
2023/04/04 16:04:05;;;;;;;5.60;4.60;;;;;;;31.34;11.05;102318.81;4933879;29;20063;-92
2023/04/04 16:06:30;;;;;;;9.53;4.67;;;;;;;29.84;12.18;102316.75;4934068;29;20070;-92
2023/04/04 16:08:56;;;;;;;5.60;4.90;;;;;;;29.19;12.50;102306.50;4985548;28;20116;-92
2023/04/04 16:14:59;;;;;;;6.82;4.45;;;;;;;27.40;13.66;102292.00;4941721;28;20057;-92
2023/04/04 16:25:07;;;;;;;6.30;4.50;;;;;;;25.25;15.06;102324.59;4993950;28;20098;-92
2023/04/04 16:31:00;;;;;;;7.68;4.82;;;;;;;23.08;17.12;102301.59;4936584;28;20056;-93
2023/04/04 16:33:36;;;;;;;6.50;4.15;;;;;;;22.54;18.07;102313.56;4979543;28;20550;-92
2023/04/04 16:36:07;;;;;;;5.68;4.70;;;;;;;22.48;17.43;102308.25;4996530;28;20492;-93
2023/04/04 16:38:35;;;;;;;5.37;4.07;;;;;;;22.17;17.73;102302.34;4980696;28;20453;-92
2023/04/04 16:41:20;;;;;;;8.15;4.10;;;;;;;21.84;17.90;102310.50;4980002;28;20038;-93
2023/04/04 16:43:51;;;;;;;8.75;4.25;;;;;;;21.06;19.02;102304.09;4980961;28;20040;-94